Ir al contenido principal

Fedex MD11 en Tokyo Marzo 23 de 2009. Informe preliminar

La junta de accidentes Japonesa ( Japanese Transportation Safety Board (JTSB)) dió a conocer un informe preliminar sobre como avanzan las investigaciones del accidente ocurrido el 23 de Marzo de 2009 en que un MD11 perteneciente a Federal Express que por causa aparentemente de una windshear se despisto durante el aterrizaje y luego capotó. Aqui algunas consideraciones del informe.

En las fotos de puede hacer click para ampliar o boton derecho del mouse/abrir en otra ventana

Representación gráfica del flight data recorder




El piloto reporta un windshear en final de pista 34L

Tower broadcast, PIREP, windshear on final, runway 34L, below 2000, plus minus 15 knots. Now surface winds 320 at 23 knots, maximum 34, minimum 15. Out.

La torre de control reporto cuando dió la autorización para el aterrizaje: a 29 nudos de 320 grados, máximo 36, mínimo 17 nudos.








Reporte de viento

time direction speed [knots]
06:48:00 325 25
06:48:03 322 28
06:48:06 312 29
06:48:09 310 26
06:48:12 317 36
06:48:15 318 34
06:48:18 318 33
06:48:21 321 34

Metars:

RJAA 222238Z 30019G32KT 9999 FEW030 12/M03 Q1002 WS R34R RMK 1CU030 A2959
RJAA 222230Z 30018KT 9999 FEW030 12/M03 Q1001 WS R34R TEMPO 31020G30KT RMK 1CU030 A2959 2218 MOD TURB BLW 500FT ON FNA RWY34R B767

RJAA 222200Z 31026G40KT 9999 FEW020 12/M02 Q1001 NOSIG RMK 1CU020 A2957 P/RR
RJAA 222130Z 32026G40KT 9999 FEW020 12/M02 Q0999 WS R34L NOSIG RMK 1CU020 A2952P/RR

RJAA 222108Z 31025G35KT 9999 FEW020 12/M01 Q0998 RMK 1CU020 A2949
RJAA 222100Z 30013G28KT 260V330 9999 FEW020 13/M01 Q0998 NOSIG RMK 1CU020 A2948
RJAA 222041Z 26012KT 210V300 9999 FEW020 12/02 Q0998 RMK 1CU020 A2948
RJAA 222033Z 32016G26KT 9999 FEW020 11/03 Q0998 RMK 1CU020 A2947
RJAA 222030Z 32017KT 9999 FEW020 12/02 Q0998 NOSIG RMK 1CU020 A2948
RJAA 222000Z 33012KT 9999 FEW020 11/05 Q0997 NOSIG RMK 1CU020 A2946
RJAA 221930Z 32012KT 9999 FEW020 13/06 Q0997 NOSIG RMK 1CU020 A2944
RJAA 221900Z 31009KT CAVOK 13/08 Q0996 NOSIG RMK A2941

Secuencia de aterrizaje (Photos: JTSB)











Fuente:
The Aviation Herald

Comentarios

Entradas más populares de este blog

EL MODELO DE REASON

CAUSALIDAD DE LOS ACCIDENTES — EL MODELO DE REASON

La aceptación en toda la industria del concepto de accidente de organización fue posible gracias a un sencillo pero gráficamente poderoso modelo elaborado por el Profesor James Reason, que proporcionó un medio para comprender cómo la aviación (o cualquier otro sistema de producción) funciona con éxito o se dirige al fracaso. Con arreglo a este modelo, los accidentes se producen cuando cierto número de factores permiten que ocurran — siendo cada uno de ellos necesario pero en sí no suficiente para quebrar las defensas del sistema. Debido a que los sistemas complejos como la aviación están extremadamente bien defendidos por capas de defensas profundas, las fallas en un punto único rara vez tienen consecuencias en el sistema aeronáutico. Las fallas de equipo o los errores operacionales nunca son la causa del quiebre de las defensas de seguridad operacional, sino más bien los elementos activadores. Los quiebres de…

La incursión en Barcelona - Una aproximación desde la Seguridad Operacional

Incursión en la pista. Todo suceso en un aeródromo que suponga la presencia incorrecta de una aeronave, vehículo o persona en la zona protegida de una superficie designada para el aterrizaje o despegue de una aeronave (DOC 9870 Manual sobre la prevención de incursiones en la pista)

Según los datos publicados en The Aviation Herald la distancia entre el A340 de AR y el B767 de  UTAir era de 1,7 millas. La siguiente imagen muestra la distancia entre ambas. En la calle M cruzando la pista 02, en base a esos datos publicados la situación quedaría así:




Cabe aclarar algo sobre el video que se ha viralizado en las redes. Las distancias no son lo que parece, el zoom y la posición del que filma dan la sensación de cercanía que no es tal. La posición del A340 que se encuentra en primer plano y el avión aproximando en segundo plano, da espectacularidad y parece que están a punto de impactar, en mi opinión, no es así, teniendo en cuenta los datos de Aviation Herald.
Este comentario no le quita gr…

COMPOSICIÓN DE LAS CENIZAS VOLCÁNICAS Y DE LOS GASES ASOCIADOS

Volcanes activos en la zona cordillerana

COMPOSICIÓN DE LAS CENIZAS VOLCÁNICAS Y DE LOS GASES ASOCIADOS

Esencialmente las nubes de cenizas volcánicas están constituidas por partículas finas de roca pulverizada, cuya composición corresponde a la del magma en el interior de los volcanes. Por consiguiente, la composición de las nubes de cenizas volcánicas varía de un volcán a otro. No obstante, en términos generales, están predominantemente constituidas por sílice (> 50%) junto con cantidades más pequeñas de óxidos de aluminio, hierro, calcio y sodio (Tabla 2-1).
El sílice es una forma de silicato vítreo y examinado por exploración microscópica de electrones se parece a cascos de vidrio de bordes agudos.
Los materiales de silicato de vidrio son muy duros. Ordinariamente de una dureza de nivel 5 ó 6 en la escala de Mohs (La escala Mohs recibe su nombre al minerólogo alemán Friedrich Mohs y se basa en una escala de dureza del talco qu…